sensor_id;sensor_type;location;lat;lon;timestamp;pressure;altitude;pressure_sealevel;temperature;humidity
65010;BME280;51556;50.002;22.014;2023-06-24T00:01:25;99189.69;;;20.49;86.13
65010;BME280;51556;50.002;22.014;2023-06-24T00:03:50;99186.92;;;20.48;85.99
65010;BME280;51556;50.002;22.014;2023-06-24T00:06:21;99188.13;;;20.44;86.34
65010;BME280;51556;50.002;22.014;2023-06-24T00:08:52;99194.36;;;20.42;86.43
65010;BME280;51556;50.002;22.014;2023-06-24T00:11:18;99192.27;;;20.41;86.56
65010;BME280;51556;50.002;22.014;2023-06-24T00:13:43;99193.01;;;20.43;86.55
65010;BME280;51556;50.002;22.014;2023-06-24T00:16:09;99196.48;;;20.44;86.50
65010;BME280;51556;50.002;22.014;2023-06-24T00:18:36;99213.05;;;20.45;86.26
65010;BME280;51556;50.002;22.014;2023-06-24T00:21:03;99215.94;;;20.45;86.43
65010;BME280;51556;50.002;22.014;2023-06-24T00:23:29;99215.88;;;20.46;86.28
65010;BME280;51556;50.002;22.014;2023-06-24T00:26:01;99216.11;;;20.45;86.33
65010;BME280;51556;50.002;22.014;2023-06-24T00:28:26;99213.50;;;20.46;86.34
65010;BME280;51556;50.002;22.014;2023-06-24T00:30:52;99209.34;;;20.47;86.20
65010;BME280;51556;50.002;22.014;2023-06-24T00:33:18;99208.30;;;20.46;86.08
65010;BME280;51556;50.002;22.014;2023-06-24T00:35:46;99204.57;;;20.46;86.18
65010;BME280;51556;50.002;22.014;2023-06-24T00:38:11;99208.00;;;20.46;86.19
65010;BME280;51556;50.002;22.014;2023-06-24T00:40:37;99209.42;;;20.46;86.07
65010;BME280;51556;50.002;22.014;2023-06-24T00:43:05;99209.46;;;20.45;86.23
65010;BME280;51556;50.002;22.014;2023-06-24T00:45:31;99206.55;;;20.48;86.30
65010;BME280;51556;50.002;22.014;2023-06-24T00:48:00;99206.54;;;20.51;86.17
65010;BME280;51556;50.002;22.014;2023-06-24T00:50:26;99207.58;;;20.55;86.06
65010;BME280;51556;50.002;22.014;2023-06-24T00:52:52;99208.59;;;20.58;85.58
65010;BME280;51556;50.002;22.014;2023-06-24T00:55:18;99207.09;;;20.56;85.57
65010;BME280;51556;50.002;22.014;2023-06-24T00:57:50;99206.59;;;20.51;85.50
65010;BME280;51556;50.002;22.014;2023-06-24T01:00:21;99202.59;;;20.41;85.62
65010;BME280;51556;50.002;22.014;2023-06-24T01:02:48;99201.83;;;20.37;85.97
65010;BME280;51556;50.002;22.014;2023-06-24T01:05:15;99205.37;;;20.32;85.89
65010;BME280;51556;50.002;22.014;2023-06-24T01:07:41;99211.19;;;20.28;86.35
65010;BME280;51556;50.002;22.014;2023-06-24T01:10:08;99212.55;;;20.29;86.26
65010;BME280;51556;50.002;22.014;2023-06-24T01:12:37;99217.97;;;20.28;86.60
65010;BME280;51556;50.002;22.014;2023-06-24T01:15:05;99214.36;;;20.31;86.58
65010;BME280;51556;50.002;22.014;2023-06-24T01:20:41;99209.36;;;20.33;86.88
65010;BME280;51556;50.002;22.014;2023-06-24T01:23:32;99210.02;;;20.37;86.87
65010;BME280;51556;50.002;22.014;2023-06-24T01:34:32;99207.34;;;20.45;86.77
65010;BME280;51556;50.002;22.014;2023-06-24T01:37:12;99210.60;;;20.47;86.67
65010;BME280;51556;50.002;22.014;2023-06-24T01:39:49;99209.65;;;20.53;86.80
65010;BME280;51556;50.002;22.014;2023-06-24T01:42:17;99208.52;;;20.59;86.51
65010;BME280;51556;50.002;22.014;2023-06-24T01:44:47;99206.15;;;20.62;86.39
65010;BME280;51556;50.002;22.014;2023-06-24T01:47:15;99200.76;;;20.70;86.42
65010;BME280;51556;50.002;22.014;2023-06-24T01:49:44;99202.70;;;20.79;86.19
65010;BME280;51556;50.002;22.014;2023-06-24T01:52:11;99207.61;;;20.80;85.67
65010;BME280;51556;50.002;22.014;2023-06-24T01:54:39;99209.18;;;20.78;85.66
65010;BME280;51556;50.002;22.014;2023-06-24T01:57:08;99211.32;;;20.83;85.78
65010;BME280;51556;50.002;22.014;2023-06-24T01:59:38;99214.16;;;20.88;85.62
65010;BME280;51556;50.002;22.014;2023-06-24T02:02:06;99217.23;;;20.90;85.46
65010;BME280;51556;50.002;22.014;2023-06-24T02:04:34;99213.48;;;20.90;85.42
65010;BME280;51556;50.002;22.014;2023-06-24T02:07:02;99211.13;;;20.91;85.39
65010;BME280;51556;50.002;22.014;2023-06-24T02:09:29;99211.22;;;20.92;85.64
65010;BME280;51556;50.002;22.014;2023-06-24T02:12:01;99216.42;;;20.94;85.54
65010;BME280;51556;50.002;22.014;2023-06-24T02:14:28;99212.52;;;20.96;85.63
65010;BME280;51556;50.002;22.014;2023-06-24T02:16:56;99215.59;;;20.99;85.71
65010;BME280;51556;50.002;22.014;2023-06-24T02:19:25;99211.77;;;21.05;85.75
65010;BME280;51556;50.002;22.014;2023-06-24T02:21:53;99214.77;;;21.10;85.47
65010;BME280;51556;50.002;22.014;2023-06-24T02:24:20;99215.26;;;21.13;85.25
65010;BME280;51556;50.002;22.014;2023-06-24T02:26:49;99217.05;;;21.13;85.22
65010;BME280;51556;50.002;22.014;2023-06-24T02:29:16;99222.28;;;21.17;85.48
65010;BME280;51556;50.002;22.014;2023-06-24T02:31:43;99223.48;;;21.21;85.32
65010;BME280;51556;50.002;22.014;2023-06-24T02:34:08;99221.67;;;21.16;85.20
65010;BME280;51556;50.002;22.014;2023-06-24T02:36:34;99213.39;;;21.10;85.55
65010;BME280;51556;50.002;22.014;2023-06-24T02:38:59;99211.52;;;21.08;85.86
65010;BME280;51556;50.002;22.014;2023-06-24T02:41:25;99208.37;;;21.07;85.97
65010;BME280;51556;50.002;22.014;2023-06-24T02:43:50;99212.38;;;21.06;86.19
65010;BME280;51556;50.002;22.014;2023-06-24T02:46:17;99221.74;;;21.08;86.38
65010;BME280;51556;50.002;22.014;2023-06-24T02:48:45;99237.32;;;21.08;86.23
65010;BME280;51556;50.002;22.014;2023-06-24T02:51:11;99250.46;;;21.02;86.39
65010;BME280;51556;50.002;22.014;2023-06-24T02:53:38;99251.33;;;20.94;86.89
65010;BME280;51556;50.002;22.014;2023-06-24T02:56:04;99252.20;;;20.87;87.33
65010;BME280;51556;50.002;22.014;2023-06-24T02:58:31;99255.14;;;20.81;87.88
65010;BME280;51556;50.002;22.014;2023-06-24T03:00:59;99247.92;;;20.74;88.09
65010;BME280;51556;50.002;22.014;2023-06-24T03:03:26;99248.56;;;20.75;88.44
65010;BME280;51556;50.002;22.014;2023-06-24T03:05:53;99251.73;;;20.78;88.25
65010;BME280;51556;50.002;22.014;2023-06-24T03:08:19;99251.59;;;20.78;88.34
65010;BME280;51556;50.002;22.014;2023-06-24T03:10:45;99259.38;;;20.79;88.24
65010;BME280;51556;50.002;22.014;2023-06-24T03:13:11;99258.94;;;20.78;88.40
65010;BME280;51556;50.002;22.014;2023-06-24T03:15:36;99257.07;;;20.79;88.60
65010;BME280;51556;50.002;22.014;2023-06-24T03:18:02;99260.80;;;20.84;88.53
65010;BME280;51556;50.002;22.014;2023-06-24T03:20:27;99266.63;;;20.88;88.28
65010;BME280;51556;50.002;22.014;2023-06-24T03:22:53;99269.61;;;20.86;88.41
65010;BME280;51556;50.002;22.014;2023-06-24T03:25:19;99276.59;;;20.86;88.24
65010;BME280;51556;50.002;22.014;2023-06-24T03:27:45;99277.19;;;20.83;88.29
65010;BME280;51556;50.002;22.014;2023-06-24T03:30:11;99280.17;;;20.81;88.42
65010;BME280;51556;50.002;22.014;2023-06-24T03:32:40;99288.95;;;20.79;88.72
65010;BME280;51556;50.002;22.014;2023-06-24T03:35:05;99290.73;;;20.81;88.62
65010;BME280;51556;50.002;22.014;2023-06-24T03:37:32;99297.30;;;20.81;88.03
65010;BME280;51556;50.002;22.014;2023-06-24T03:39:57;99291.14;;;20.78;87.67
65010;BME280;51556;50.002;22.014;2023-06-24T03:42:23;99297.40;;;20.82;87.52
65010;BME280;51556;50.002;22.014;2023-06-24T03:44:48;99294.48;;;20.83;87.01
65010;BME280;51556;50.002;22.014;2023-06-24T03:47:14;99294.76;;;20.82;87.16
65010;BME280;51556;50.002;22.014;2023-06-24T03:49:40;99296.46;;;20.83;87.14
65010;BME280;51556;50.002;22.014;2023-06-24T03:52:05;99297.08;;;20.82;87.17
65010;BME280;51556;50.002;22.014;2023-06-24T03:54:34;99295.46;;;20.80;87.12
65010;BME280;51556;50.002;22.014;2023-06-24T03:56:59;99291.24;;;20.76;86.51
65010;BME280;51556;50.002;22.014;2023-06-24T03:59:25;99293.09;;;20.70;85.86
65010;BME280;51556;50.002;22.014;2023-06-24T04:01:50;99296.63;;;20.62;85.96
65010;BME280;51556;50.002;22.014;2023-06-24T04:04:16;99296.52;;;20.54;86.33
65010;BME280;51556;50.002;22.014;2023-06-24T04:06:42;99305.49;;;20.40;87.31
65010;BME280;51556;50.002;22.014;2023-06-24T04:09:07;99316.45;;;20.25;87.95
65010;BME280;51556;50.002;22.014;2023-06-24T04:11:35;99311.21;;;20.20;88.04
65010;BME280;51556;50.002;22.014;2023-06-24T04:14:01;99307.61;;;20.18;88.43
65010;BME280;51556;50.002;22.014;2023-06-24T04:16:27;99303.86;;;20.18;88.53
65010;BME280;51556;50.002;22.014;2023-06-24T04:18:52;99305.98;;;20.19;87.60
65010;BME280;51556;50.002;22.014;2023-06-24T04:21:18;99295.36;;;20.20;87.54
65010;BME280;51556;50.002;22.014;2023-06-24T04:23:43;99297.17;;;20.22;87.31
65010;BME280;51556;50.002;22.014;2023-06-24T04:26:09;99301.16;;;20.24;87.23
65010;BME280;51556;50.002;22.014;2023-06-24T04:28:35;99293.17;;;20.26;86.88
65010;BME280;51556;50.002;22.014;2023-06-24T04:31:00;99287.89;;;20.27;87.03
65010;BME280;51556;50.002;22.014;2023-06-24T04:33:26;99289.83;;;20.28;86.73
65010;BME280;51556;50.002;22.014;2023-06-24T04:35:51;99291.05;;;20.25;86.68
65010;BME280;51556;50.002;22.014;2023-06-24T04:38:17;99287.61;;;20.26;86.81
65010;BME280;51556;50.002;22.014;2023-06-24T04:40:44;99275.58;;;20.27;86.77
65010;BME280;51556;50.002;22.014;2023-06-24T04:43:10;99271.11;;;20.22;86.66
65010;BME280;51556;50.002;22.014;2023-06-24T04:45:35;99277.19;;;20.22;86.93
65010;BME280;51556;50.002;22.014;2023-06-24T04:48:01;99276.63;;;20.25;87.04
65010;BME280;51556;50.002;22.014;2023-06-24T04:50:26;99273.67;;;20.26;87.10
65010;BME280;51556;50.002;22.014;2023-06-24T04:52:53;99271.50;;;20.27;87.15
65010;BME280;51556;50.002;22.014;2023-06-24T04:55:21;99270.05;;;20.29;87.24
65010;BME280;51556;50.002;22.014;2023-06-24T04:57:47;99268.20;;;20.33;87.21
65010;BME280;51556;50.002;22.014;2023-06-24T05:00:12;99268.31;;;20.37;87.48
65010;BME280;51556;50.002;22.014;2023-06-24T05:02:38;99264.21;;;20.40;87.81
65010;BME280;51556;50.002;22.014;2023-06-24T05:05:04;99261.69;;;20.43;87.84
65010;BME280;51556;50.002;22.014;2023-06-24T05:07:29;99261.20;;;20.44;88.33
65010;BME280;51556;50.002;22.014;2023-06-24T05:09:55;99261.28;;;20.46;88.60
65010;BME280;51556;50.002;22.014;2023-06-24T05:12:20;99256.52;;;20.45;88.80
65010;BME280;51556;50.002;22.014;2023-06-24T05:14:50;99252.80;;;20.44;89.02
65010;BME280;51556;50.002;22.014;2023-06-24T05:17:16;99253.98;;;20.45;89.21
65010;BME280;51556;50.002;22.014;2023-06-24T05:19:41;99253.81;;;20.48;89.37
65010;BME280;51556;50.002;22.014;2023-06-24T05:22:09;99254.08;;;20.49;89.56
65010;BME280;51556;50.002;22.014;2023-06-24T05:24:34;99248.86;;;20.47;89.58
65010;BME280;51556;50.002;22.014;2023-06-24T05:27:04;99246.52;;;20.47;89.76
65010;BME280;51556;50.002;22.014;2023-06-24T05:29:34;99245.23;;;20.48;89.83
65010;BME280;51556;50.002;22.014;2023-06-24T05:31:59;99233.77;;;20.51;89.88
65010;BME280;51556;50.002;22.014;2023-06-24T05:34:26;99226.27;;;20.53;89.86
65010;BME280;51556;50.002;22.014;2023-06-24T05:36:52;99224.85;;;20.56;89.84
65010;BME280;51556;50.002;22.014;2023-06-24T05:39:18;99222.95;;;20.57;89.82
65010;BME280;51556;50.002;22.014;2023-06-24T05:41:43;99223.20;;;20.61;89.65
65010;BME280;51556;50.002;22.014;2023-06-24T05:44:09;99223.98;;;20.65;89.69
65010;BME280;51556;50.002;22.014;2023-06-24T05:46:37;99217.47;;;20.69;89.71
65010;BME280;51556;50.002;22.014;2023-06-24T05:49:03;99212.02;;;20.73;89.66
65010;BME280;51556;50.002;22.014;2023-06-24T05:51:29;99208.05;;;20.76;89.56
65010;BME280;51556;50.002;22.014;2023-06-24T05:53:54;99208.41;;;20.81;89.37
65010;BME280;51556;50.002;22.014;2023-06-24T05:56:20;99207.84;;;20.81;89.32
65010;BME280;51556;50.002;22.014;2023-06-24T05:58:49;99208.16;;;20.85;89.47
65010;BME280;51556;50.002;22.014;2023-06-24T06:01:15;99211.89;;;20.90;89.41
65010;BME280;51556;50.002;22.014;2023-06-24T06:03:40;99216.36;;;20.93;89.34
65010;BME280;51556;50.002;22.014;2023-06-24T06:06:06;99218.58;;;20.97;89.21
65010;BME280;51556;50.002;22.014;2023-06-24T06:08:33;99219.39;;;21.00;89.14
65010;BME280;51556;50.002;22.014;2023-06-24T06:10:59;99223.10;;;21.01;88.70
65010;BME280;51556;50.002;22.014;2023-06-24T06:13:27;99232.23;;;20.98;88.58
65010;BME280;51556;50.002;22.014;2023-06-24T06:15:53;99230.48;;;20.95;88.38
65010;BME280;51556;50.002;22.014;2023-06-24T06:18:18;99235.87;;;20.93;88.46
65010;BME280;51556;50.002;22.014;2023-06-24T06:20:44;99239.29;;;20.90;88.39
65010;BME280;51556;50.002;22.014;2023-06-24T06:23:09;99245.48;;;20.88;88.27
65010;BME280;51556;50.002;22.014;2023-06-24T06:25:35;99251.75;;;20.85;88.25
65010;BME280;51556;50.002;22.014;2023-06-24T06:28:02;99258.30;;;20.84;88.26
65010;BME280;51556;50.002;22.014;2023-06-24T06:30:28;99266.13;;;20.85;88.08
65010;BME280;51556;50.002;22.014;2023-06-24T06:32:54;99271.88;;;20.84;87.75
65010;BME280;51556;50.002;22.014;2023-06-24T06:35:19;99285.02;;;20.78;87.51
65010;BME280;51556;50.002;22.014;2023-06-24T06:37:45;99295.78;;;20.73;87.72
65010;BME280;51556;50.002;22.014;2023-06-24T06:40:17;99298.64;;;20.67;87.63
65010;BME280;51556;50.002;22.014;2023-06-24T06:42:43;99304.02;;;20.64;87.63
65010;BME280;51556;50.002;22.014;2023-06-24T06:45:09;99308.61;;;20.63;87.70
65010;BME280;51556;50.002;22.014;2023-06-24T06:47:35;99313.63;;;20.65;87.98
65010;BME280;51556;50.002;22.014;2023-06-24T06:50:01;99317.95;;;20.67;87.98
65010;BME280;51556;50.002;22.014;2023-06-24T06:52:49;99319.21;;;20.70;87.78
65010;BME280;51556;50.002;22.014;2023-06-24T06:55:15;99325.06;;;20.73;87.93
65010;BME280;51556;50.002;22.014;2023-06-24T06:57:40;99330.42;;;20.74;87.60
65010;BME280;51556;50.002;22.014;2023-06-24T07:00:06;99332.45;;;20.73;87.72
65010;BME280;51556;50.002;22.014;2023-06-24T07:02:32;99338.07;;;20.74;87.61
65010;BME280;51556;50.002;22.014;2023-06-24T07:04:57;99344.20;;;20.76;87.22
65010;BME280;51556;50.002;22.014;2023-06-24T07:07:24;99348.77;;;20.77;87.20
65010;BME280;51556;50.002;22.014;2023-06-24T07:09:50;99353.61;;;20.80;87.21
65010;BME280;51556;50.002;22.014;2023-06-24T07:12:15;99354.84;;;20.80;86.82
65010;BME280;51556;50.002;22.014;2023-06-24T07:14:41;99356.80;;;20.80;86.51
65010;BME280;51556;50.002;22.014;2023-06-24T07:17:07;99355.15;;;20.76;86.39
65010;BME280;51556;50.002;22.014;2023-06-24T07:19:32;99353.91;;;20.80;86.64
65010;BME280;51556;50.002;22.014;2023-06-24T07:21:58;99360.04;;;20.87;86.68
65010;BME280;51556;50.002;22.014;2023-06-24T07:24:23;99363.05;;;20.93;86.73
65010;BME280;51556;50.002;22.014;2023-06-24T07:26:49;99367.08;;;21.00;86.50
65010;BME280;51556;50.002;22.014;2023-06-24T07:29:14;99372.50;;;21.02;85.86
65010;BME280;51556;50.002;22.014;2023-06-24T07:31:40;99379.27;;;21.02;85.98
65010;BME280;51556;50.002;22.014;2023-06-24T07:34:08;99381.37;;;21.02;85.75
65010;BME280;51556;50.002;22.014;2023-06-24T07:36:36;99382.42;;;21.06;85.30
65010;BME280;51556;50.002;22.014;2023-06-24T07:39:01;99385.24;;;21.06;85.02
65010;BME280;51556;50.002;22.014;2023-06-24T07:41:28;99393.52;;;21.08;84.85
65010;BME280;51556;50.002;22.014;2023-06-24T07:43:53;99397.71;;;21.10;84.53
65010;BME280;51556;50.002;22.014;2023-06-24T07:46:20;99401.42;;;21.08;84.30
65010;BME280;51556;50.002;22.014;2023-06-24T07:48:45;99407.67;;;21.08;84.23
65010;BME280;51556;50.002;22.014;2023-06-24T07:51:11;99406.81;;;21.10;84.22
65010;BME280;51556;50.002;22.014;2023-06-24T07:53:36;99409.14;;;21.13;83.85
65010;BME280;51556;50.002;22.014;2023-06-24T07:56:02;99416.60;;;21.11;83.53
65010;BME280;51556;50.002;22.014;2023-06-24T07:58:27;99418.34;;;21.12;83.68
65010;BME280;51556;50.002;22.014;2023-06-24T08:00:53;99416.83;;;21.16;83.82
65010;BME280;51556;50.002;22.014;2023-06-24T08:03:18;99420.46;;;21.20;83.92
65010;BME280;51556;50.002;22.014;2023-06-24T08:05:44;99425.00;;;21.27;84.06
65010;BME280;51556;50.002;22.014;2023-06-24T08:08:09;99422.99;;;21.36;83.77
65010;BME280;51556;50.002;22.014;2023-06-24T08:10:37;99428.20;;;21.44;83.78
65010;BME280;51556;50.002;22.014;2023-06-24T08:13:02;99430.01;;;21.48;82.97
65010;BME280;51556;50.002;22.014;2023-06-24T08:15:28;99433.11;;;21.50;82.65
65010;BME280;51556;50.002;22.014;2023-06-24T08:17:54;99437.53;;;21.51;82.63
65010;BME280;51556;50.002;22.014;2023-06-24T08:20:22;99441.89;;;21.53;82.43
65010;BME280;51556;50.002;22.014;2023-06-24T08:22:53;99446.08;;;21.54;82.60
65010;BME280;51556;50.002;22.014;2023-06-24T08:25:19;99451.44;;;21.56;82.72
65010;BME280;51556;50.002;22.014;2023-06-24T08:27:45;99452.96;;;21.55;81.97
65010;BME280;51556;50.002;22.014;2023-06-24T08:30:13;99450.91;;;21.46;81.70
65010;BME280;51556;50.002;22.014;2023-06-24T08:32:40;99449.46;;;21.42;81.65
65010;BME280;51556;50.002;22.014;2023-06-24T08:35:07;99454.59;;;21.40;81.86
65010;BME280;51556;50.002;22.014;2023-06-24T08:37:33;99457.01;;;21.41;81.90
65010;BME280;51556;50.002;22.014;2023-06-24T08:39:59;99457.84;;;21.40;81.54
65010;BME280;51556;50.002;22.014;2023-06-24T08:42:24;99459.30;;;21.39;81.62
65010;BME280;51556;50.002;22.014;2023-06-24T08:44:50;99457.48;;;21.39;81.43
65010;BME280;51556;50.002;22.014;2023-06-24T08:47:16;99455.48;;;21.37;81.42
65010;BME280;51556;50.002;22.014;2023-06-24T08:49:53;99455.98;;;21.38;81.44
65010;BME280;51556;50.002;22.014;2023-06-24T08:52:25;99456.72;;;21.40;81.25
65010;BME280;51556;50.002;22.014;2023-06-24T08:54:55;99452.35;;;21.39;80.88
65010;BME280;51556;50.002;22.014;2023-06-24T08:57:23;99457.48;;;21.34;80.68
65010;BME280;51556;50.002;22.014;2023-06-24T08:59:49;99457.26;;;21.32;80.82
65010;BME280;51556;50.002;22.014;2023-06-24T09:02:14;99458.64;;;21.35;81.07
65010;BME280;51556;50.002;22.014;2023-06-24T09:04:40;99462.45;;;21.37;80.63
65010;BME280;51556;50.002;22.014;2023-06-24T09:07:06;99464.52;;;21.39;80.49
65010;BME280;51556;50.002;22.014;2023-06-24T09:09:31;99461.21;;;21.40;80.64
65010;BME280;51556;50.002;22.014;2023-06-24T09:12:01;99466.16;;;21.44;80.39
65010;BME280;51556;50.002;22.014;2023-06-24T09:14:29;99471.36;;;21.49;80.21
65010;BME280;51556;50.002;22.014;2023-06-24T09:19:22;99478.80;;;21.57;80.19
65010;BME280;51556;50.002;22.014;2023-06-24T09:21:48;99479.86;;;21.62;79.66
65010;BME280;51556;50.002;22.014;2023-06-24T09:24:13;99485.11;;;21.64;79.56
65010;BME280;51556;50.002;22.014;2023-06-24T09:26:42;99488.03;;;21.63;79.19
65010;BME280;51556;50.002;22.014;2023-06-24T09:29:14;99489.29;;;21.63;79.46
65010;BME280;51556;50.002;22.014;2023-06-24T09:31:48;99488.21;;;21.61;78.66
65010;BME280;51556;50.002;22.014;2023-06-24T09:34:14;99493.83;;;21.57;79.18
65010;BME280;51556;50.002;22.014;2023-06-24T09:36:43;99496.23;;;21.56;78.18
65010;BME280;51556;50.002;22.014;2023-06-24T09:39:10;99495.27;;;21.47;78.10
65010;BME280;51556;50.002;22.014;2023-06-24T09:41:36;99497.39;;;21.39;77.93
65010;BME280;51556;50.002;22.014;2023-06-24T09:44:02;99503.55;;;21.30;77.92
65010;BME280;51556;50.002;22.014;2023-06-24T09:46:30;99498.04;;;21.24;78.42
65010;BME280;51556;50.002;22.014;2023-06-24T09:48:55;99501.01;;;21.25;78.68
65010;BME280;51556;50.002;22.014;2023-06-24T09:51:22;99502.14;;;21.25;78.80
65010;BME280;51556;50.002;22.014;2023-06-24T09:53:49;99502.44;;;21.23;78.60
65010;BME280;51556;50.002;22.014;2023-06-24T09:56:18;99503.20;;;21.19;79.00
65010;BME280;51556;50.002;22.014;2023-06-24T09:58:44;99509.69;;;21.18;79.01
65010;BME280;51556;50.002;22.014;2023-06-24T10:01:11;99513.17;;;21.23;79.11
65010;BME280;51556;50.002;22.014;2023-06-24T10:03:38;99517.23;;;21.27;79.26
65010;BME280;51556;50.002;22.014;2023-06-24T10:06:05;99522.50;;;21.28;78.20
65010;BME280;51556;50.002;22.014;2023-06-24T10:08:31;99516.26;;;21.25;78.22
65010;BME280;51556;50.002;22.014;2023-06-24T10:10:58;99524.24;;;21.20;78.31
65010;BME280;51556;50.002;22.014;2023-06-24T10:13:24;99527.90;;;21.17;77.97
65010;BME280;51556;50.002;22.014;2023-06-24T10:15:51;99526.48;;;21.14;78.43
65010;BME280;51556;50.002;22.014;2023-06-24T10:18:36;99527.48;;;21.17;78.79
65010;BME280;51556;50.002;22.014;2023-06-24T10:21:07;99529.97;;;21.20;78.59
65010;BME280;51556;50.002;22.014;2023-06-24T10:23:39;99535.73;;;21.25;78.69
65010;BME280;51556;50.002;22.014;2023-06-24T10:26:26;99536.98;;;21.31;78.63
65010;BME280;51556;50.002;22.014;2023-06-24T10:31:54;99534.30;;;21.42;78.99
65010;BME280;51556;50.002;22.014;2023-06-24T10:34:30;99535.67;;;21.48;78.82
65010;BME280;51556;50.002;22.014;2023-06-24T10:39:39;99531.31;;;21.65;78.04
65010;BME280;51556;50.002;22.014;2023-06-24T10:42:33;99528.48;;;21.64;76.86
65010;BME280;51556;50.002;22.014;2023-06-24T10:47:29;99532.02;;;21.70;76.53
65010;BME280;51556;50.002;22.014;2023-06-24T10:49:54;99526.08;;;21.76;76.93
65010;BME280;51556;50.002;22.014;2023-06-24T10:52:22;99533.98;;;21.86;76.65
65010;BME280;51556;50.002;22.014;2023-06-24T10:54:48;99532.40;;;21.93;76.46
65010;BME280;51556;50.002;22.014;2023-06-24T10:57:15;99530.05;;;21.95;75.85
65010;BME280;51556;50.002;22.014;2023-06-24T10:59:47;99535.30;;;22.00;76.03
65010;BME280;51556;50.002;22.014;2023-06-24T11:02:18;99536.08;;;22.05;75.71
65010;BME280;51556;50.002;22.014;2023-06-24T11:07:23;99539.02;;;22.09;74.12
65010;BME280;51556;50.002;22.014;2023-06-24T11:09:51;99539.80;;;22.11;74.65
65010;BME280;51556;50.002;22.014;2023-06-24T11:12:17;99539.77;;;22.16;75.02
65010;BME280;51556;50.002;22.014;2023-06-24T11:14:42;99541.31;;;22.22;74.41
65010;BME280;51556;50.002;22.014;2023-06-24T11:17:08;99544.70;;;22.27;74.29
65010;BME280;51556;50.002;22.014;2023-06-24T11:19:35;99545.74;;;22.30;73.90
65010;BME280;51556;50.002;22.014;2023-06-24T11:22:05;99549.63;;;22.29;72.95
65010;BME280;51556;50.002;22.014;2023-06-24T11:24:30;99551.35;;;22.25;72.45
65010;BME280;51556;50.002;22.014;2023-06-24T11:26:56;99555.09;;;22.20;72.15
65010;BME280;51556;50.002;22.014;2023-06-24T11:29:22;99557.92;;;22.13;72.47
65010;BME280;51556;50.002;22.014;2023-06-24T11:31:51;99555.52;;;22.09;71.67
65010;BME280;51556;50.002;22.014;2023-06-24T11:34:17;99559.77;;;22.04;72.12
65010;BME280;51556;50.002;22.014;2023-06-24T11:36:43;99554.04;;;22.01;72.52
65010;BME280;51556;50.002;22.014;2023-06-24T11:39:08;99553.77;;;22.03;73.25
65010;BME280;51556;50.002;22.014;2023-06-24T11:41:34;99557.27;;;22.05;72.96
65010;BME280;51556;50.002;22.014;2023-06-24T11:44:00;99555.20;;;22.03;72.38
65010;BME280;51556;50.002;22.014;2023-06-24T11:48:51;99549.89;;;21.96;72.49
65010;BME280;51556;50.002;22.014;2023-06-24T11:51:17;99554.38;;;21.94;72.78
65010;BME280;51556;50.002;22.014;2023-06-24T11:53:46;99549.36;;;21.91;72.28
65010;BME280;51556;50.002;22.014;2023-06-24T11:56:12;99549.95;;;21.88;72.46
65010;BME280;51556;50.002;22.014;2023-06-24T11:58:38;99551.38;;;21.81;71.83
65010;BME280;51556;50.002;22.014;2023-06-24T12:01:06;99552.90;;;21.74;72.72
65010;BME280;51556;50.002;22.014;2023-06-24T12:03:33;99549.17;;;21.71;72.80
65010;BME280;51556;50.002;22.014;2023-06-24T12:05:59;99552.26;;;21.67;73.06
65010;BME280;51556;50.002;22.014;2023-06-24T12:08:25;99549.29;;;21.66;73.23
65010;BME280;51556;50.002;22.014;2023-06-24T12:10:51;99549.45;;;21.64;73.04
65010;BME280;51556;50.002;22.014;2023-06-24T12:13:17;99548.27;;;21.63;73.24
65010;BME280;51556;50.002;22.014;2023-06-24T12:15:43;99545.35;;;21.64;73.20
65010;BME280;51556;50.002;22.014;2023-06-24T12:18:09;99547.07;;;21.62;73.71
65010;BME280;51556;50.002;22.014;2023-06-24T12:20:35;99546.02;;;21.61;73.69
65010;BME280;51556;50.002;22.014;2023-06-24T12:23:02;99548.05;;;21.61;73.85
65010;BME280;51556;50.002;22.014;2023-06-24T12:25:28;99550.59;;;21.63;73.75
65010;BME280;51556;50.002;22.014;2023-06-24T12:27:54;99550.62;;;21.65;73.82
65010;BME280;51556;50.002;22.014;2023-06-24T12:30:20;99547.29;;;21.72;74.13
65010;BME280;51556;50.002;22.014;2023-06-24T12:32:49;99550.14;;;21.77;73.82
65010;BME280;51556;50.002;22.014;2023-06-24T12:35:15;99550.77;;;21.81;74.07
65010;BME280;51556;50.002;22.014;2023-06-24T12:37:40;99544.86;;;21.86;74.10
65010;BME280;51556;50.002;22.014;2023-06-24T12:40:06;99545.10;;;21.93;74.52
65010;BME280;51556;50.002;22.014;2023-06-24T12:42:32;99544.02;;;21.98;74.48
65010;BME280;51556;50.002;22.014;2023-06-24T12:44:59;99552.84;;;22.04;74.16
65010;BME280;51556;50.002;22.014;2023-06-24T12:47:24;99552.33;;;22.06;74.11
65010;BME280;51556;50.002;22.014;2023-06-24T12:49:50;99553.27;;;22.08;74.13
65010;BME280;51556;50.002;22.014;2023-06-24T12:52:16;99554.50;;;22.11;74.29
65010;BME280;51556;50.002;22.014;2023-06-24T12:54:42;99556.67;;;22.13;74.31
65010;BME280;51556;50.002;22.014;2023-06-24T12:57:07;99557.59;;;22.07;73.67
65010;BME280;51556;50.002;22.014;2023-06-24T12:59:33;99559.20;;;21.99;73.75
65010;BME280;51556;50.002;22.014;2023-06-24T13:01:58;99561.61;;;21.98;74.16
65010;BME280;51556;50.002;22.014;2023-06-24T13:04:24;99558.68;;;21.96;73.74
65010;BME280;51556;50.002;22.014;2023-06-24T13:06:51;99558.64;;;21.89;73.92
65010;BME280;51556;50.002;22.014;2023-06-24T13:09:17;99561.61;;;21.85;74.29
65010;BME280;51556;50.002;22.014;2023-06-24T13:11:42;99563.13;;;21.84;74.62
65010;BME280;51556;50.002;22.014;2023-06-24T13:14:08;99562.96;;;21.84;75.33
65010;BME280;51556;50.002;22.014;2023-06-24T13:16:36;99561.89;;;21.86;75.92